Time;durP1;ratioP1;P1;durP2;ratioP2;P2;SDS_P1;SDS_P2;PMS_P1;PMS_P2;Temp;Humidity;BMP_temperature;BMP_pressure;BME280_temperature;BME280_humidity;BME280_pressure;Samples;Min_cycle;Max_cycle;Signal;HPM_P1;HPM_P2
2021/05/11 00:00:33;;;;;;;0.60;0.40;;;17.20;99.90;;;;;;4993369;28;20594;-78
2021/05/11 00:02:59;;;;;;;1.25;0.75;;;17.20;99.90;;;;;;4993303;28;20583;-78
2021/05/11 00:05:29;;;;;;;8.98;0.40;;;17.30;99.90;;;;;;4993280;28;20161;-78
2021/05/11 00:07:56;;;;;;;0.38;0.38;;;17.20;99.90;;;;;;4993338;28;20157;-78
2021/05/11 00:10:23;;;;;;;0.77;0.77;;;17.20;99.90;;;;;;4993144;28;20173;-77
2021/05/11 00:12:49;;;;;;;4.75;1.48;;;17.20;99.90;;;;;;4993102;28;20548;-79
2021/05/11 00:15:16;;;;;;;0.20;0.20;;;17.00;99.90;;;;;;4993244;28;20165;-78
2021/05/11 00:17:43;;;;;;;0.20;0.20;;;16.80;99.90;;;;;;4993111;28;20255;-79
2021/05/11 00:20:09;;;;;;;0.10;0.10;;;16.60;99.90;;;;;;4975644;28;20265;-78
2021/05/11 00:22:35;;;;;;;0.10;0.10;;;16.80;99.90;;;;;;4993062;28;20157;-78
2021/05/11 00:25:00;;;;;;;0.35;0.35;;;16.90;99.90;;;;;;4993256;28;20546;-78
2021/05/11 00:27:27;;;;;;;1.00;0.75;;;16.80;99.90;;;;;;4996598;28;20200;-78
2021/05/11 00:29:52;;;;;;;1.15;0.60;;;16.70;99.90;;;;;;4996501;28;20255;-78
2021/05/11 00:32:18;;;;;;;1.90;0.85;;;16.70;99.90;;;;;;4996545;28;20612;-79
2021/05/11 00:34:43;;;;;;;0.30;0.30;;;16.60;99.90;;;;;;4998727;28;20164;-78
2021/05/11 00:37:09;;;;;;;0.40;0.38;;;16.50;99.90;;;;;;4997544;28;20216;-79
2021/05/11 00:39:34;;;;;;;0.20;0.20;;;16.50;99.90;;;;;;5001803;28;20539;-79
2021/05/11 00:42:00;;;;;;;0.38;0.38;;;16.50;99.90;;;;;;4996600;28;20221;-79
2021/05/11 00:44:27;;;;;;;0.77;0.70;;;16.50;99.90;;;;;;4996545;28;20161;-80
2021/05/11 00:47:15;;;;;;;0.28;0.28;;;16.50;99.90;;;;;;4996549;28;20256;-80
2021/05/11 00:49:40;;;;;;;0.75;0.32;;;16.70;99.90;;;;;;4995910;28;20177;-80
2021/05/11 00:52:07;;;;;;;0.15;0.15;;;16.80;99.90;;;;;;4996520;28;20207;-78
2021/05/11 00:57:10;;;;;;;6.22;1.05;;;16.20;99.90;;;;;;5491395;23;20528;-78
2021/05/11 00:59:36;;;;;;;0.40;0.40;;;16.10;99.90;;;;;;5015787;28;20682;-79
2021/05/11 01:02:05;;;;;;;0.30;0.30;;;16.00;99.90;;;;;;5015963;28;20321;-79
2021/05/11 01:09:41;;;;;;;0.30;0.30;;;15.50;99.90;;;;;;3058578;23;20227;-79
2021/05/11 01:12:07;;;;;;;7.43;0.65;;;15.40;99.90;;;;;;4998206;28;20179;-79
2021/05/11 01:14:33;;;;;;;0.60;0.60;;;15.40;99.90;;;;;;5015000;28;20535;-79
2021/05/11 01:17:00;;;;;;;0.52;0.52;;;15.60;99.90;;;;;;5015241;28;20284;-78
2021/05/11 01:24:43;;;;;;;0.88;0.75;;;15.40;99.90;;;;;;5014906;28;20180;-79
2021/05/11 01:29:52;;;;;;;3.50;0.47;;;15.40;99.90;;;;;;5015193;28;20177;-79
2021/05/11 02:23:45;;;;;;;0.55;0.55;;;14.40;99.90;;;;;;5013728;28;20183;-79
2021/05/11 02:26:10;;;;;;;0.30;0.30;;;14.40;99.90;;;;;;5013887;28;20518;-79
2021/05/11 02:28:36;;;;;;;0.68;0.68;;;14.30;99.90;;;;;;4996245;28;20188;-78
2021/05/11 02:31:01;;;;;;;3.88;1.50;;;14.40;99.90;;;;;;5014449;28;20599;-79
2021/05/11 02:33:27;;;;;;;0.38;0.38;;;14.30;99.90;;;;;;5014548;28;20184;-79
2021/05/11 02:35:52;;;;;;;0.88;0.77;;;14.20;99.90;;;;;;5013766;28;20180;-79
2021/05/11 02:38:18;;;;;;;1.15;1.05;;;14.20;99.90;;;;;;5012916;28;20220;-79
2021/05/11 02:40:43;;;;;;;2.67;0.45;;;14.20;99.90;;;;;;5013522;28;20239;-78
2021/05/11 02:43:15;;;;;;;1.02;0.32;;;14.30;99.90;;;;;;5013153;28;20172;-79
2021/05/11 02:45:40;;;;;;;0.50;0.25;;;14.20;99.90;;;;;;5013220;28;20161;-78
2021/05/11 02:48:06;;;;;;;4.88;0.55;;;14.20;99.90;;;;;;5013039;28;20192;-78
2021/05/11 02:50:34;;;;;;;0.20;0.20;;;14.40;99.90;;;;;;5013607;28;20239;-78
2021/05/11 02:53:01;;;;;;;2.30;0.65;;;14.20;99.90;;;;;;5013760;28;20169;-78
2021/05/11 02:55:27;;;;;;;0.35;0.35;;;14.10;99.90;;;;;;5015021;28;20173;-79
2021/05/11 02:57:54;;;;;;;0.22;0.22;;;14.00;99.90;;;;;;4996599;28;20212;-78
2021/05/11 03:00:21;;;;;;;1.08;0.43;;;13.90;99.90;;;;;;5014043;28;20533;-79
2021/05/11 03:02:48;;;;;;;0.65;0.65;;;14.00;99.90;;;;;;5013891;28;20256;-79
2021/05/11 03:05:14;;;;;;;0.40;0.40;;;14.30;99.90;;;;;;5013461;28;20199;-80
2021/05/11 03:07:43;;;;;;;0.30;0.30;;;14.20;99.90;;;;;;5013259;28;20196;-80
2021/05/11 03:10:11;;;;;;;0.30;0.30;;;14.00;99.90;;;;;;5013621;28;20215;-79
2021/05/11 03:12:36;;;;;;;1.45;0.30;;;13.90;99.90;;;;;;5013899;28;20173;-79
2021/05/11 03:15:04;;;;;;;0.20;0.20;;;13.80;99.90;;;;;;5013635;28;20504;-79
2021/05/11 03:17:30;;;;;;;0.50;0.50;;;13.80;99.90;;;;;;5013398;28;20212;-79
2021/05/11 03:19:55;;;;;;;0.80;0.80;;;13.70;99.90;;;;;;5013380;28;20164;-79
2021/05/11 03:22:21;;;;;;;0.60;0.60;;;13.50;99.90;;;;;;5013381;28;20167;-80
2021/05/11 03:24:47;;;;;;;1.08;1.00;;;13.60;99.90;;;;;;5013372;28;20207;-79
2021/05/11 03:27:14;;;;;;;1.23;0.40;;;13.60;99.90;;;;;;5012525;28;20238;-79
2021/05/11 03:29:40;;;;;;;0.30;0.30;;;13.50;99.90;;;;;;5012921;28;20180;-78
2021/05/11 03:32:07;;;;;;;0.57;0.52;;;13.60;99.90;;;;;;5012964;28;20512;-79
2021/05/11 03:34:33;;;;;;;0.57;0.57;;;13.50;99.90;;;;;;5013103;28;20172;-78
2021/05/11 03:36:59;;;;;;;0.68;0.68;;;13.40;99.90;;;;;;5012680;28;20552;-79
2021/05/11 03:39:25;;;;;;;1.00;0.77;;;13.50;99.90;;;;;;5012745;28;20175;-78
2021/05/11 03:41:54;;;;;;;0.45;0.35;;;13.30;99.90;;;;;;5012960;28;20168;-79
2021/05/11 03:44:24;;;;;;;0.50;0.50;;;13.40;99.90;;;;;;5012890;28;20164;-80
2021/05/11 03:46:49;;;;;;;0.40;0.40;;;13.50;99.90;;;;;;5012355;28;20187;-79
2021/05/11 03:49:15;;;;;;;4.60;1.48;;;13.50;99.90;;;;;;5012270;28;20203;-79
2021/05/11 03:51:41;;;;;;;0.65;0.65;;;13.60;99.90;;;;;;5012355;28;20608;-80
2021/05/11 03:54:08;;;;;;;0.20;0.20;;;13.50;99.90;;;;;;4995036;28;20184;-80
2021/05/11 03:56:34;;;;;;;3.20;0.45;;;13.40;99.90;;;;;;5012662;28;20255;-81
2021/05/11 03:59:00;;;;;;;0.43;0.43;;;13.20;99.90;;;;;;4994032;28;20287;-81
2021/05/11 04:01:25;;;;;;;0.40;0.40;;;13.40;99.90;;;;;;4996668;28;20175;-81
2021/05/11 04:03:51;;;;;;;1.13;0.85;;;13.50;99.90;;;;;;4995514;28;20173;-80
2021/05/11 04:06:17;;;;;;;0.50;0.50;;;13.60;99.90;;;;;;4997905;28;20165;-80
2021/05/11 04:16:35;;;;;;;0.15;0.15;;;13.40;99.90;;;;;;5015444;28;20554;-79
2021/05/11 04:19:00;;;;;;;1.00;0.22;;;13.50;99.90;;;;;;4997676;28;20216;-80
2021/05/11 04:21:26;;;;;;;0.10;0.10;;;13.40;99.90;;;;;;5015326;28;20170;-79
2021/05/11 04:23:52;;;;;;;0.30;0.28;;;13.50;99.90;;;;;;5015428;28;20173;-79
2021/05/11 04:26:20;;;;;;;0.40;0.40;;;13.50;99.90;;;;;;5015429;28;20161;-78
2021/05/11 04:28:47;;;;;;;6.95;1.95;;;13.30;99.90;;;;;;5015406;28;20566;-79
2021/05/11 04:31:13;;;;;;;0.40;0.40;;;13.40;99.90;;;;;;5015487;28;20172;-77
2021/05/11 04:33:39;;;;;;;2.78;1.73;;;13.60;99.90;;;;;;5015118;28;20178;-78
2021/05/11 04:36:06;;;;;;;0.70;0.70;;;13.70;99.90;;;;;;5015512;28;20177;-78
2021/05/11 04:38:32;;;;;;;1.23;0.98;;;13.70;99.90;;;;;;5015255;28;20613;-77
2021/05/11 04:40:57;;;;;;;7.22;1.48;;;13.70;99.90;;;;;;5013466;28;20171;-79
2021/05/11 04:43:27;;;;;;;0.50;0.50;;;13.70;99.90;;;;;;5014733;28;20684;-80
2021/05/11 04:48:38;;;;;;;0.80;0.80;;;13.60;99.90;;;;;;5016727;28;20220;-80
2021/05/11 04:51:04;;;;;;;1.90;0.85;;;13.50;99.90;;;;;;4997383;28;20176;-78
2021/05/11 04:53:30;;;;;;;1.65;1.35;;;13.60;99.90;;;;;;5015202;28;20203;-80
2021/05/11 04:55:56;;;;;;;2.05;0.75;;;13.70;99.90;;;;;;4997821;28;20218;-80
2021/05/11 04:58:21;;;;;;;0.30;0.30;;;13.70;99.90;;;;;;5015821;28;20208;-80
2021/05/11 05:00:49;;;;;;;0.50;0.50;;;13.90;99.90;;;;;;5015542;28;20176;-80
2021/05/11 05:03:16;;;;;;;0.88;0.88;;;13.90;99.90;;;;;;5014868;28;20175;-81
2021/05/11 05:05:43;;;;;;;0.52;0.52;;;13.90;99.90;;;;;;5015468;28;20573;-81
2021/05/11 05:08:09;;;;;;;2.20;1.65;;;13.80;99.90;;;;;;4997088;28;20216;-81
2021/05/11 05:10:35;;;;;;;0.40;0.40;;;13.80;99.90;;;;;;5014588;28;20545;-81
2021/05/11 05:13:00;;;;;;;0.70;0.70;;;13.80;99.90;;;;;;5015259;28;20224;-80
2021/05/11 05:15:26;;;;;;;1.17;0.70;;;13.90;99.90;;;;;;5014865;28;20203;-81
2021/05/11 05:17:51;;;;;;;1.48;0.80;;;14.10;99.90;;;;;;5014500;28;20208;-79
2021/05/11 05:20:17;;;;;;;4.97;0.40;;;14.40;99.90;;;;;;5014896;28;20542;-79
2021/05/11 05:22:43;;;;;;;0.70;0.70;;;14.50;99.90;;;;;;5014944;28;20276;-80
2021/05/11 05:25:15;;;;;;;2.92;1.20;;;14.70;99.90;;;;;;4997123;28;20172;-81
2021/05/11 05:30:10;;;;;;;0.90;0.90;;;15.30;99.90;;;;;;5014410;28;20268;-80
2021/05/11 05:32:35;;;;;;;0.60;0.60;;;15.50;99.90;;;;;;5014373;28;20539;-80
2021/05/11 05:35:01;;;;;;;1.13;0.80;;;15.50;99.90;;;;;;5014339;28;20165;-80
2021/05/11 05:37:27;;;;;;;1.33;1.27;;;15.40;99.90;;;;;;5013718;28;20638;-79
2021/05/11 05:39:56;;;;;;;0.47;0.47;;;15.40;99.90;;;;;;5013981;28;20192;-79
2021/05/11 05:42:22;;;;;;;13.52;1.55;;;15.40;99.90;;;;;;4996256;28;20543;-79
2021/05/11 05:44:48;;;;;;;0.60;0.60;;;15.40;99.90;;;;;;5014150;28;20179;-79
2021/05/11 05:47:13;;;;;;;1.10;1.00;;;15.70;99.90;;;;;;5014182;28;20211;-78
2021/05/11 05:49:43;;;;;;;1.08;0.98;;;15.90;99.90;;;;;;5013937;28;20550;-79
2021/05/11 05:52:17;;;;;;;0.65;0.52;;;15.90;99.90;;;;;;5013818;28;20223;-79
2021/05/11 05:54:45;;;;;;;0.30;0.30;;;16.00;99.90;;;;;;4995834;28;20169;-81
2021/05/11 05:57:10;;;;;;;0.68;0.68;;;16.10;99.90;;;;;;5013013;28;20610;-79
2021/05/11 05:59:39;;;;;;;28.70;4.57;;;16.40;99.90;;;;;;5013192;28;20183;-80
2021/05/11 06:02:07;;;;;;;1.73;1.00;;;16.70;99.90;;;;;;4996005;28;20176;-80
2021/05/11 06:04:32;;;;;;;9.55;3.13;;;17.00;99.90;;;;;;5013390;28;20264;-79
2021/05/11 06:06:58;;;;;;;4.15;2.70;;;17.30;99.90;;;;;;5013295;28;20271;-81
2021/05/11 06:09:24;;;;;;;15.98;2.25;;;17.40;99.90;;;;;;5013173;28;20188;-80
2021/05/11 06:11:57;;;;;;;25.67;2.75;;;17.40;99.90;;;;;;5013081;28;20173;-79
2021/05/11 06:19:38;;;;;;;1.50;1.33;;;17.60;99.90;;;;;;5012405;28;20258;-80
2021/05/11 06:22:07;;;;;;;35.00;1.67;;;17.50;99.90;;;;;;4995389;28;20205;-79
2021/05/11 06:24:33;;;;;;;20.90;7.68;;;17.40;99.90;;;;;;5012779;28;20600;-80
2021/05/11 06:26:59;;;;;;;24.77;6.10;;;17.60;99.90;;;;;;4995261;28;20310;-81
2021/05/11 06:29:26;;;;;;;37.85;3.15;;;17.70;99.90;;;;;;5013261;28;20168;-80
2021/05/11 06:31:52;;;;;;;9.35;3.50;;;17.60;99.90;;;;;;5012717;28;20567;-81
2021/05/11 06:34:18;;;;;;;2.58;1.70;;;17.80;99.90;;;;;;5012490;28;20192;-81
2021/05/11 06:36:43;;;;;;;5.68;1.75;;;17.80;99.90;;;;;;4994904;28;20669;-80
2021/05/11 06:39:11;;;;;;;3.20;0.80;;;17.80;99.90;;;;;;5012273;28;20636;-80
2021/05/11 06:41:39;;;;;;;1.08;0.70;;;17.70;99.90;;;;;;5012121;28;20248;-83
2021/05/11 06:44:06;;;;;;;22.33;1.48;;;17.40;99.90;;;;;;5011829;28;20535;-79
2021/05/11 06:49:28;;;;;;;2.95;1.45;;;17.00;99.90;;;;;;5012094;28;20235;-81
2021/05/11 06:54:38;;;;;;;0.50;0.45;;;17.00;99.90;;;;;;5011655;28;20695;-80
2021/05/11 06:57:05;;;;;;;1.40;1.23;;;16.70;99.90;;;;;;5011731;28;20200;-79
2021/05/11 06:59:31;;;;;;;2.60;1.27;;;16.90;99.90;;;;;;5011810;28;20206;-81
2021/05/11 07:02:00;;;;;;;5.50;0.95;;;17.10;99.90;;;;;;5011945;28;20522;-81
2021/05/11 07:04:25;;;;;;;0.60;0.60;;;17.20;99.90;;;;;;5011614;28;20172;-81
2021/05/11 07:06:51;;;;;;;0.30;0.30;;;17.70;99.90;;;;;;4994441;28;20196;-81
2021/05/11 07:09:23;;;;;;;3.72;0.80;;;18.80;99.90;;;;;;4991800;28;581292;-81
2021/05/11 07:14:14;;;;;;;0.80;0.80;;;21.70;99.90;;;;;;5012362;28;20176;-80
2021/05/11 07:16:39;;;;;;;1.73;0.85;;;23.00;99.90;;;;;;4993967;28;20197;-81
2021/05/11 07:19:05;;;;;;;1.55;0.85;;;23.90;99.90;;;;;;4994686;28;20247;-80
2021/05/11 07:21:31;;;;;;;0.57;0.55;;;24.50;99.90;;;;;;5012524;28;20223;-81
2021/05/11 07:23:57;;;;;;;11.38;1.30;;;24.80;99.90;;;;;;5012289;28;20176;-81
2021/05/11 07:26:27;;;;;;;0.28;0.17;;;25.00;99.90;;;;;;4994808;28;20612;-81
2021/05/11 07:29:10;;;;;;;0.75;0.50;;;25.40;99.90;;;;;;5012231;28;20211;-81
2021/05/11 07:31:39;;;;;;;0.32;0.32;;;25.90;99.90;;;;;;4994814;28;20556;-81
2021/05/11 07:34:06;;;;;;;8.20;0.77;;;26.80;97.80;;;;;;4994866;28;20172;-79
2021/05/11 07:36:33;;;;;;;0.43;0.43;;;26.70;96.70;;;;;;5015363;28;20527;-85
2021/05/11 07:38:59;;;;;;;6.57;1.13;;;25.60;96.80;;;;;;5016577;28;20196;-79
2021/05/11 07:41:25;;;;;;;2.47;1.15;;;24.50;98.40;;;;;;5016423;28;20176;-79
2021/05/11 07:43:54;;;;;;;9.32;0.98;;;24.00;99.10;;;;;;5016105;28;20243;-81
2021/05/11 07:46:32;;;;;;;0.47;0.40;;;23.20;99.80;;;;;;5016505;28;20524;-78
2021/05/11 08:10:17;;;;;;;36.03;5.00;;;21.00;99.90;;;;;;5015728;28;20188;-79
2021/05/11 08:15:29;;;;;;;18.73;2.50;;;21.40;99.90;;;;;;5015662;28;20211;-79
2021/05/11 08:18:03;;;;;;;1.65;1.13;;;21.30;99.90;;;;;;5015538;28;20204;-79
2021/05/11 08:23:30;;;;;;;2.38;1.17;;;21.70;99.90;;;;;;5015346;28;20590;-81
2021/05/11 08:28:29;;;;;;;2.60;0.63;;;21.30;99.90;;;;;;5015240;28;20621;-79
2021/05/11 08:30:54;;;;;;;0.20;0.20;;;20.90;99.90;;;;;;5015253;28;20192;-79
2021/05/11 08:33:20;;;;;;;0.38;0.38;;;20.70;99.90;;;;;;5016030;28;20251;-80
2021/05/11 08:35:50;;;;;;;0.32;0.32;;;21.00;99.90;;;;;;5015694;28;20531;-78
2021/05/11 08:38:16;;;;;;;0.40;0.40;;;21.10;99.90;;;;;;5015159;28;20216;-79
2021/05/11 08:40:41;;;;;;;0.00;0.00;;;21.10;99.90;;;;;;5014867;28;20169;-80
2021/05/11 08:43:33;;;;;;;0.43;0.43;;;21.10;99.90;;;;;;5015537;28;20164;-78
2021/05/11 08:46:04;;;;;;;0.57;0.40;;;21.20;99.90;;;;;;5013205;28;20176;-79
2021/05/11 08:48:30;;;;;;;0.08;0.08;;;21.60;99.90;;;;;;5014672;28;20189;-80
2021/05/11 08:51:47;;;;;;;1.10;0.80;;;21.60;99.90;;;;;;5014196;28;20169;-78
2021/05/11 09:04:55;;;;;;;0.75;0.47;;;21.80;99.90;;;;;;5014010;28;20188;-78
2021/05/11 10:48:34;;;;;;;0.10;0.10;;;24.20;94.40;;;;;;5012617;28;20192;-80
2021/05/11 10:51:02;;;;;;;0.57;0.45;;;24.30;94.00;;;;;;5012554;28;20239;-80
2021/05/11 10:53:46;;;;;;;0.10;0.10;;;24.70;93.00;;;;;;5012234;28;20168;-80
2021/05/11 10:56:43;;;;;;;0.10;0.10;;;24.50;93.10;;;;;;5012514;28;20172;-79
2021/05/11 11:01:50;;;;;;;0.32;0.30;;;23.40;93.90;;;;;;5012583;28;20694;-80
2021/05/11 11:04:33;;;;;;;0.20;0.20;;;22.90;95.60;;;;;;5012136;28;21883;-80
2021/05/11 11:07:02;;;;;;;0.20;0.15;;;22.40;95.40;;;;;;5012118;28;20192;-79
2021/05/11 11:09:32;;;;;;;2.03;0.45;;;22.40;95.40;;;;;;5011844;28;20207;-79
2021/05/11 11:11:59;;;;;;;0.85;0.50;;;22.80;94.70;;;;;;5012192;28;20191;-79
2021/05/11 11:14:25;;;;;;;0.30;0.22;;;23.30;93.20;;;;;;5012635;28;20179;-79
2021/05/11 11:17:05;;;;;;;0.10;0.10;;;23.40;92.70;;;;;;5012816;28;20185;-79
2021/05/11 11:19:31;;;;;;;0.88;0.47;;;23.40;92.10;;;;;;4994795;28;20184;-80
2021/05/11 11:22:03;;;;;;;0.75;0.32;;;23.50;91.50;;;;;;5012074;28;20153;-79
2021/05/11 11:24:30;;;;;;;0.00;0.00;;;23.60;91.90;;;;;;5012309;28;20183;-79
2021/05/11 11:26:58;;;;;;;0.15;0.15;;;23.30;92.00;;;;;;4994796;28;20188;-79
2021/05/11 11:29:24;;;;;;;0.43;0.43;;;22.70;90.90;;;;;;5012342;28;20168;-79
2021/05/11 11:31:51;;;;;;;0.20;0.05;;;22.40;92.50;;;;;;5012403;28;20222;-79
2021/05/11 11:34:26;;;;;;;1.15;0.25;;;22.60;92.70;;;;;;5011945;28;20200;-79
2021/05/11 11:36:58;;;;;;;0.10;0.10;;;22.90;92.50;;;;;;5012154;28;20200;-79
2021/05/11 11:39:25;;;;;;;0.28;0.28;;;23.30;92.70;;;;;;4994818;28;20177;-81
2021/05/11 11:41:54;;;;;;;0.00;0.00;;;22.70;91.60;;;;;;5012142;28;20172;-79
2021/05/11 11:44:22;;;;;;;0.35;0.35;;;23.00;91.20;;;;;;5011564;28;20195;-79
2021/05/11 11:46:56;;;;;;;0.10;0.10;;;23.20;90.70;;;;;;5012136;28;20185;-79
2021/05/11 11:49:25;;;;;;;0.35;0.30;;;23.50;90.10;;;;;;5011703;28;20302;-79
2021/05/11 11:51:59;;;;;;;1.65;0.75;;;23.80;89.10;;;;;;5012284;28;20165;-79
2021/05/11 11:59:36;;;;;;;1.60;0.55;;;24.10;89.30;;;;;;5014603;28;20260;-79
2021/05/11 12:02:04;;;;;;;0.10;0.10;;;24.20;87.90;;;;;;5021516;28;20177;-80
2021/05/11 12:04:31;;;;;;;0.47;0.45;;;24.20;88.00;;;;;;5030917;28;20176;-79
2021/05/11 12:07:08;;;;;;;0.10;0.10;;;24.60;86.80;;;;;;5030715;28;20184;-79
2021/05/11 12:09:33;;;;;;;0.38;0.38;;;24.20;85.40;;;;;;5031093;28;20172;-79
2021/05/11 12:12:00;;;;;;;8.27;0.65;;;23.50;87.20;;;;;;5034516;28;20195;-79
2021/05/11 12:14:27;;;;;;;5.72;0.30;;;23.90;88.00;;;;;;5030305;28;20245;-79
2021/05/11 12:16:53;;;;;;;0.35;0.30;;;24.20;90.30;;;;;;5011783;28;20220;-79
2021/05/11 12:19:22;;;;;;;0.25;0.25;;;24.30;87.00;;;;;;5011607;28;20722;-80
2021/05/11 12:22:04;;;;;;;2.53;0.50;;;24.30;87.10;;;;;;5013118;28;20260;-79
2021/05/11 12:24:31;;;;;;;0.38;0.20;;;24.00;88.90;;;;;;4997674;28;20203;-79
2021/05/11 12:27:13;;;;;;;12.40;1.45;;;23.40;90.20;;;;;;4997257;28;20282;-80
2021/05/11 12:30:00;;;;;;;0.15;0.15;;;23.00;90.20;;;;;;5015161;28;20168;-78
2021/05/11 12:32:26;;;;;;;0.10;0.10;;;22.70;91.40;;;;;;5015204;28;20162;-78
2021/05/11 12:35:09;;;;;;;0.85;0.85;;;22.10;93.40;;;;;;5015474;28;20177;-79
2021/05/11 12:37:44;;;;;;;0.60;0.60;;;21.30;95.10;;;;;;5014965;28;20598;-79
2021/05/11 12:40:24;;;;;;;1.67;0.60;;;20.40;97.20;;;;;;5015357;28;20177;-79
2021/05/11 12:42:50;;;;;;;0.38;0.20;;;19.90;98.60;;;;;;5014708;28;20267;-79
2021/05/11 12:45:15;;;;;;;0.85;0.40;;;19.30;99.90;;;;;;5014912;28;20281;-78
2021/05/11 12:47:51;;;;;;;0.70;0.70;;;18.80;99.90;;;;;;5014912;28;20188;-78
2021/05/11 12:50:20;;;;;;;0.10;0.10;;;18.50;99.90;;;;;;5014979;28;20168;-78
2021/05/11 12:52:48;;;;;;;5.57;0.25;;;18.10;99.90;;;;;;5015031;28;20172;-80
2021/05/11 12:55:31;;;;;;;0.57;0.57;;;17.70;99.90;;;;;;5015655;28;20605;-78
2021/05/11 12:58:09;;;;;;;0.10;0.10;;;17.40;99.90;;;;;;5014699;28;20301;-78
2021/05/11 13:00:43;;;;;;;0.30;0.30;;;17.30;99.90;;;;;;4997285;28;20172;-78
2021/05/11 13:03:23;;;;;;;0.25;0.25;;;17.20;99.90;;;;;;5014541;28;20177;-79
2021/05/11 13:27:00;;;;;;;1.20;0.52;;;16.90;99.90;;;;;;5013662;28;20234;-79
2021/05/11 13:29:42;;;;;;;3.92;1.08;;;16.90;99.90;;;;;;5012587;28;20828;-78
2021/05/11 13:32:15;;;;;;;0.20;0.20;;;16.90;99.90;;;;;;5009881;28;20668;-79
2021/05/11 13:34:41;;;;;;;0.28;0.28;;;16.80;99.90;;;;;;5011583;28;20263;-78
2021/05/11 13:37:06;;;;;;;0.45;0.45;;;16.70;99.90;;;;;;5012049;28;20280;-79
2021/05/11 13:39:32;;;;;;;0.35;0.35;;;16.80;99.90;;;;;;5011862;28;20262;-79
2021/05/11 13:41:57;;;;;;;1.60;0.60;;;16.50;99.90;;;;;;5011545;28;20215;-80
2021/05/11 13:44:23;;;;;;;0.35;0.30;;;16.60;99.90;;;;;;5011675;28;20169;-81
2021/05/11 13:46:49;;;;;;;0.68;0.68;;;16.60;99.90;;;;;;5012119;28;20621;-79
2021/05/11 13:49:18;;;;;;;0.30;0.30;;;16.80;99.90;;;;;;5012154;28;20187;-79
2021/05/11 13:51:45;;;;;;;0.90;0.82;;;16.60;99.90;;;;;;5012549;28;20180;-79
2021/05/11 13:54:12;;;;;;;1.05;0.35;;;16.60;99.90;;;;;;5012932;28;20165;-81
2021/05/11 14:04:41;;;;;;;0.10;0.10;;;16.70;99.90;;;;;;5013452;28;20168;-80
2021/05/11 14:07:06;;;;;;;1.48;0.95;;;17.00;99.90;;;;;;5013255;28;20286;-79
2021/05/11 14:09:32;;;;;;;0.20;0.20;;;17.30;99.90;;;;;;5013171;28;20223;-81
2021/05/11 14:11:58;;;;;;;0.10;0.10;;;17.20;99.90;;;;;;5011571;28;20391;-77
2021/05/11 14:14:24;;;;;;;0.28;0.28;;;17.60;99.90;;;;;;5003404;28;20184;-78
2021/05/11 14:16:49;;;;;;;0.22;0.22;;;18.10;99.90;;;;;;5011082;28;20192;-83
2021/05/11 14:19:15;;;;;;;0.75;0.20;;;18.40;99.90;;;;;;5011053;28;20259;-80
2021/05/11 14:21:42;;;;;;;7.32;0.85;;;18.60;99.90;;;;;;5011316;28;20242;-79
2021/05/11 14:24:08;;;;;;;0.35;0.35;;;18.80;99.90;;;;;;5012623;28;20184;-78
2021/05/11 14:26:34;;;;;;;0.28;0.28;;;18.90;99.90;;;;;;5011818;28;20593;-79
2021/05/11 14:28:59;;;;;;;0.52;0.50;;;19.10;99.90;;;;;;5011472;28;20204;-78
2021/05/11 14:31:26;;;;;;;0.20;0.20;;;18.80;99.90;;;;;;4993503;28;20240;-77
2021/05/11 14:33:52;;;;;;;0.20;0.20;;;18.40;99.90;;;;;;5011519;28;20276;-80
2021/05/11 14:36:18;;;;;;;5.03;0.52;;;18.20;99.90;;;;;;5010357;28;20161;-79
2021/05/11 14:38:44;;;;;;;0.32;0.32;;;18.20;99.90;;;;;;5010489;28;20231;-79
2021/05/11 14:41:10;;;;;;;3.50;0.50;;;18.20;99.90;;;;;;5012454;28;20509;-78
2021/05/11 14:43:37;;;;;;;1.17;0.45;;;18.20;99.90;;;;;;5013177;28;20181;-79
2021/05/11 14:46:05;;;;;;;2.90;0.50;;;18.30;99.90;;;;;;5012369;28;20251;-80
2021/05/11 14:48:33;;;;;;;0.93;0.90;;;18.30;99.90;;;;;;5012483;28;20199;-79
2021/05/11 14:50:59;;;;;;;2.60;0.45;;;18.00;99.90;;;;;;5012088;28;20179;-79
2021/05/11 14:53:25;;;;;;;0.30;0.30;;;18.20;99.90;;;;;;5012664;28;20209;-80
2021/05/11 14:55:52;;;;;;;1.02;0.60;;;18.40;99.90;;;;;;5012308;28;20270;-81
2021/05/11 14:58:17;;;;;;;0.50;0.50;;;18.20;99.90;;;;;;5012308;28;20298;-79
2021/05/11 15:00:43;;;;;;;0.88;0.88;;;18.30;99.90;;;;;;5012210;28;20203;-80
2021/05/11 15:03:11;;;;;;;1.75;0.73;;;18.00;99.90;;;;;;5012073;28;20360;-79
2021/05/11 15:05:37;;;;;;;0.80;0.75;;;17.80;99.90;;;;;;4995444;28;20536;-79
2021/05/11 15:08:04;;;;;;;0.17;0.17;;;18.00;99.90;;;;;;5012173;28;20188;-79
2021/05/11 15:10:30;;;;;;;0.20;0.20;;;17.90;99.90;;;;;;5012064;28;20269;-79
2021/05/11 15:12:56;;;;;;;0.30;0.30;;;17.90;99.90;;;;;;4996490;28;20670;-79
2021/05/11 15:15:22;;;;;;;3.85;0.98;;;17.70;99.90;;;;;;4991918;28;20177;-79
2021/05/11 15:20:14;;;;;;;0.30;0.30;;;18.20;99.90;;;;;;5009365;28;20184;-78
2021/05/11 15:22:41;;;;;;;0.40;0.35;;;18.10;99.90;;;;;;5011331;28;20801;-79
2021/05/11 15:25:07;;;;;;;0.10;0.10;;;18.20;99.90;;;;;;5010848;28;20600;-79
2021/05/11 15:27:35;;;;;;;0.30;0.30;;;18.50;99.90;;;;;;5009481;28;20181;-78
2021/05/11 15:30:00;;;;;;;0.17;0.17;;;18.90;99.90;;;;;;5006903;28;20216;-78
2021/05/11 15:32:40;;;;;;;6.22;0.20;;;19.10;99.90;;;;;;5005789;28;20200;-78
2021/05/11 15:35:08;;;;;;;3.22;0.50;;;19.30;99.90;;;;;;5011020;28;20169;-79
2021/05/11 15:37:34;;;;;;;2.22;1.33;;;18.90;99.90;;;;;;4996311;28;20287;-78
2021/05/11 15:40:00;;;;;;;1.25;0.40;;;19.10;99.90;;;;;;4991110;28;20185;-77
2021/05/11 15:42:25;;;;;;;0.30;0.30;;;18.80;99.90;;;;;;5016980;28;20171;-79
2021/05/11 15:44:51;;;;;;;0.45;0.22;;;18.90;99.90;;;;;;5011551;28;20164;-79
2021/05/11 15:47:17;;;;;;;0.28;0.28;;;18.80;99.90;;;;;;5011695;28;20242;-78
2021/05/11 15:49:46;;;;;;;0.30;0.17;;;19.10;99.90;;;;;;5010504;28;20180;-78
2021/05/11 15:52:11;;;;;;;0.25;0.25;;;19.00;99.90;;;;;;5010559;28;20173;-79
2021/05/11 15:54:37;;;;;;;0.15;0.15;;;19.10;99.90;;;;;;5011175;28;20172;-79
2021/05/11 15:57:06;;;;;;;0.20;0.17;;;19.00;99.90;;;;;;5011672;28;20184;-78
2021/05/11 15:59:31;;;;;;;0.52;0.52;;;19.00;99.90;;;;;;5015184;28;20230;-80
2021/05/11 16:01:57;;;;;;;0.50;0.35;;;18.80;99.90;;;;;;5015639;28;20173;-80
2021/05/11 16:04:23;;;;;;;0.13;0.13;;;18.90;99.90;;;;;;5015655;28;20173;-78
2021/05/11 16:06:49;;;;;;;1.77;1.20;;;18.80;99.90;;;;;;5015660;28;20197;-78
2021/05/11 16:09:15;;;;;;;0.10;0.10;;;19.10;99.90;;;;;;5014591;28;20175;-81
2021/05/11 16:11:40;;;;;;;8.00;0.63;;;19.20;99.90;;;;;;5010321;28;20184;-79
2021/05/11 16:14:06;;;;;;;0.43;0.40;;;19.50;99.90;;;;;;5013711;28;20256;-78
2021/05/11 16:16:32;;;;;;;0.20;0.20;;;19.90;99.90;;;;;;4981472;28;20251;-79
2021/05/11 16:18:59;;;;;;;0.10;0.10;;;20.20;99.90;;;;;;4996802;28;20208;-78
2021/05/11 16:21:24;;;;;;;3.00;0.50;;;20.10;99.90;;;;;;5015122;28;20171;-80
2021/05/11 16:23:52;;;;;;;0.30;0.30;;;20.30;99.90;;;;;;5014589;28;20172;-78
2021/05/11 16:26:18;;;;;;;1.42;0.85;;;20.60;99.90;;;;;;5014625;28;20219;-80
2021/05/11 16:28:43;;;;;;;0.25;0.25;;;20.80;99.90;;;;;;4996998;28;20196;-80
2021/05/11 16:31:09;;;;;;;0.10;0.10;;;20.50;99.90;;;;;;5017932;28;20186;-81
2021/05/11 16:33:36;;;;;;;0.28;0.28;;;20.70;99.90;;;;;;5014841;28;20597;-81
2021/05/11 16:36:02;;;;;;;0.45;0.45;;;20.80;99.90;;;;;;5015501;28;20160;-79
2021/05/11 16:38:27;;;;;;;0.57;0.52;;;20.70;99.90;;;;;;5015087;28;20282;-80
2021/05/11 16:40:54;;;;;;;0.40;0.22;;;20.70;99.90;;;;;;5015824;28;20494;-81
2021/05/11 16:43:22;;;;;;;0.15;0.15;;;20.10;99.90;;;;;;5015654;28;20181;-80
2021/05/11 16:45:48;;;;;;;1.17;0.85;;;20.00;99.90;;;;;;4997499;28;20218;-77
2021/05/11 16:48:15;;;;;;;0.85;0.55;;;19.70;99.90;;;;;;5015135;28;20264;-81
2021/05/11 16:50:41;;;;;;;0.40;0.40;;;19.70;99.90;;;;;;4997067;28;20204;-78
2021/05/11 16:53:08;;;;;;;0.60;0.60;;;19.80;99.90;;;;;;5014741;28;20194;-78
2021/05/11 16:55:34;;;;;;;0.50;0.50;;;19.70;99.90;;;;;;5014324;28;20163;-78
2021/05/11 16:58:00;;;;;;;0.43;0.43;;;19.70;99.90;;;;;;5014327;28;20212;-77
2021/05/11 17:00:27;;;;;;;0.68;0.30;;;19.60;99.90;;;;;;5014308;28;20251;-79
2021/05/11 17:02:54;;;;;;;0.50;0.50;;;19.50;99.90;;;;;;5014025;28;20268;-80
2021/05/11 17:05:21;;;;;;;0.20;0.20;;;19.50;99.90;;;;;;5014459;28;20199;-78
2021/05/11 17:07:47;;;;;;;1.45;0.47;;;19.60;99.90;;;;;;5013770;28;20189;-78
2021/05/11 17:10:14;;;;;;;6.40;1.02;;;19.40;99.90;;;;;;5013983;28;20188;-77
2021/05/11 17:12:39;;;;;;;0.65;0.35;;;19.10;99.90;;;;;;5014280;28;20532;-79
2021/05/11 17:15:06;;;;;;;1.13;0.70;;;19.10;99.90;;;;;;5014197;28;20165;-78
2021/05/11 17:17:32;;;;;;;1.27;1.17;;;19.00;99.90;;;;;;5014403;28;20258;-77
2021/05/11 17:19:58;;;;;;;0.28;0.28;;;19.10;99.90;;;;;;4996811;28;20173;-79
2021/05/11 17:22:24;;;;;;;0.28;0.28;;;19.10;99.90;;;;;;5014439;28;20279;-78